createdAt,value
2018-08-31T00:00:11.936Z,101964.17
2018-08-31T00:02:45.885Z,101969.30
2018-08-31T00:05:52.966Z,101968.83
2018-08-31T00:08:46.765Z,101974.36
2018-08-31T00:11:42.256Z,101963.73
2018-08-31T00:14:10.565Z,101979.06
2018-08-31T00:16:39.925Z,101968.19
2018-08-31T00:19:09.284Z,101982.77
2018-08-31T00:21:37.601Z,101973.52
2018-08-31T00:24:17.333Z,101977.70
2018-08-31T00:26:56.937Z,101973.52
2018-08-31T00:29:37.315Z,101974.64
2018-08-31T00:34:26.168Z,101976.39
2018-08-31T00:37:06.217Z,101970.95
2018-08-31T00:41:53.789Z,101971.16
2018-08-31T00:45:29.677Z,101975.33
2018-08-31T00:47:59.005Z,101966.45
2018-08-31T00:50:28.561Z,101969.30
2018-08-31T00:52:57.206Z,101967.98
2018-08-31T00:55:26.617Z,101972.65
2018-08-31T00:57:54.919Z,101973.97
2018-08-31T01:00:23.202Z,101970.07
2018-08-31T01:02:51.485Z,101970.95
2018-08-31T01:05:19.985Z,101968.52
2018-08-31T01:07:48.757Z,101966.13
2018-08-31T01:10:19.418Z,101966.15
2018-08-31T01:12:47.772Z,101966.56
2018-08-31T01:15:16.105Z,101970.66
2018-08-31T01:17:44.384Z,101964.77
2018-08-31T01:20:12.697Z,101963.62
2018-08-31T01:22:41.056Z,101966.03
2018-08-31T01:25:10.501Z,101966.58
2018-08-31T01:27:38.788Z,101968.41
2018-08-31T01:30:08.690Z,101962.92
2018-08-31T01:32:36.968Z,101960.35
2018-08-31T01:35:05.317Z,101964.96
2018-08-31T01:37:34.593Z,101966.44
2018-08-31T01:40:02.944Z,101960.41
2018-08-31T01:42:31.348Z,101958.92
2018-08-31T01:45:01.065Z,101967.98
2018-08-31T01:47:29.338Z,101958.69
2018-08-31T01:49:57.622Z,101962.62
2018-08-31T01:52:25.950Z,101962.73
2018-08-31T01:54:54.278Z,101957.90
2018-08-31T01:57:22.667Z,101954.73
2018-08-31T01:59:50.965Z,101954.33
2018-08-31T02:02:20.470Z,101957.95
2018-08-31T02:04:48.764Z,101955.28
2018-08-31T02:07:18.168Z,101958.92
2018-08-31T02:09:47.612Z,101954.20
2018-08-31T02:12:16.018Z,101960.65
2018-08-31T02:14:44.287Z,101968.11
2018-08-31T02:17:12.613Z,101967.09
2018-08-31T02:19:40.901Z,101965.91
2018-08-31T02:22:11.387Z,101966.73
2018-08-31T02:24:39.826Z,101969.08
2018-08-31T02:27:09.275Z,101966.20
2018-08-31T02:29:37.586Z,101961.90
2018-08-31T02:32:06.045Z,101962.67
2018-08-31T02:34:34.317Z,101963.41
2018-08-31T02:37:02.628Z,101962.67
2018-08-31T02:39:30.910Z,101968.34
2018-08-31T02:41:59.233Z,101966.45
2018-08-31T02:44:27.533Z,101972.34
2018-08-31T02:46:55.801Z,101969.35
2018-08-31T02:49:24.106Z,101963.29
2018-08-31T02:51:53.459Z,101970.80
2018-08-31T02:54:21.793Z,101956.64
2018-08-31T02:56:50.161Z,101971.52
2018-08-31T02:59:18.566Z,101966.28
2018-08-31T03:01:46.872Z,101969.02
2018-08-31T03:04:15.274Z,101965.48
2018-08-31T03:06:43.541Z,101965.97
2018-08-31T03:09:12.185Z,101953.37
2018-08-31T03:11:40.546Z,101962.25
2018-08-31T03:14:08.786Z,101966.80
2018-08-31T03:16:37.043Z,101966.82
2018-08-31T03:19:05.389Z,101970.71
2018-08-31T03:21:33.637Z,101971.01
2018-08-31T03:24:01.937Z,101974.25
2018-08-31T03:26:30.189Z,101966.75
2018-08-31T03:28:58.590Z,101973.57
2018-08-31T03:31:26.863Z,101977.03
2018-08-31T03:33:56.172Z,101976.98
2018-08-31T03:36:24.518Z,101971.53
2018-08-31T03:38:52.817Z,101973.38
2018-08-31T03:41:21.084Z,101975.09
2018-08-31T03:43:50.384Z,101971.84
2018-08-31T03:46:18.649Z,101981.71
2018-08-31T03:48:46.965Z,101984.94
2018-08-31T03:51:15.328Z,101978.98
2018-08-31T03:53:43.607Z,101984.94
2018-08-31T03:56:11.894Z,101983.23
2018-08-31T03:58:40.151Z,101987.14
2018-08-31T04:01:08.450Z,101991.62
2018-08-31T04:03:37.718Z,101990.91
2018-08-31T04:06:06.107Z,101994.38
2018-08-31T04:08:34.375Z,101996.17
2018-08-31T04:11:02.644Z,101991.20
2018-08-31T04:13:30.921Z,101981.42
2018-08-31T04:15:59.228Z,101990.78
2018-08-31T04:18:27.471Z,101992.34
2018-08-31T04:20:55.729Z,101989.05
2018-08-31T04:23:24.126Z,101992.93
2018-08-31T04:25:52.405Z,101987.81
2018-08-31T04:28:20.765Z,101989.30
2018-08-31T04:30:49.100Z,101987.22
2018-08-31T04:33:17.376Z,101986.67
2018-08-31T04:35:46.850Z,101985.72
2018-08-31T04:38:15.135Z,101988.58
2018-08-31T04:40:43.550Z,101994.86
2018-08-31T04:43:11.828Z,101988.82
2018-08-31T04:45:40.097Z,101996.22
2018-08-31T04:48:08.381Z,101993.84
2018-08-31T04:50:36.621Z,101996.32
2018-08-31T04:53:06.137Z,101990.13
2018-08-31T04:55:34.395Z,101994.02
2018-08-31T04:58:02.732Z,101997.76
2018-08-31T05:00:30.981Z,102007.48
2018-08-31T05:02:59.257Z,101998.70
2018-08-31T05:05:27.505Z,102003.02
2018-08-31T05:07:55.769Z,102000.55
2018-08-31T05:10:24.352Z,102001.76
2018-08-31T05:12:52.745Z,101998.32
2018-08-31T05:15:21.009Z,101998.55
2018-08-31T05:17:49.417Z,102002.55
2018-08-31T05:20:17.675Z,102003.04
2018-08-31T05:22:46.134Z,102006.69
2018-08-31T05:25:14.361Z,102006.27
2018-08-31T05:27:42.627Z,102011.92
2018-08-31T05:30:11.001Z,102007.98
2018-08-31T05:32:39.385Z,102011.86
2018-08-31T05:35:07.737Z,102012.45
2018-08-31T05:37:36.009Z,102010.32
2018-08-31T05:40:04.321Z,102017.16
2018-08-31T05:42:32.596Z,102021.77
2018-08-31T05:45:01.974Z,102020.55
2018-08-31T05:47:30.249Z,102031.73
2018-08-31T05:49:58.533Z,102028.76
2018-08-31T05:52:27.378Z,102031.62
2018-08-31T05:54:55.697Z,102020.42
2018-08-31T05:57:23.941Z,102027.84
2018-08-31T05:59:52.239Z,102028.71
2018-08-31T06:02:20.763Z,102038.12
2018-08-31T06:04:48.793Z,102033.13
2018-08-31T06:07:18.084Z,102034.34
2018-08-31T06:09:46.461Z,102027.40
2018-08-31T06:12:14.740Z,102026.63
2018-08-31T06:14:44.053Z,102032.30
2018-08-31T06:17:12.349Z,102024.83
2018-08-31T06:19:40.702Z,102024.28
2018-08-31T06:22:11.037Z,102026.34
2018-08-31T06:24:39.401Z,102034.46
2018-08-31T06:27:09.842Z,102031.25
2018-08-31T06:29:38.121Z,102030.88
2018-08-31T06:32:06.418Z,102032.34
2018-08-31T06:34:34.777Z,102029.44
2018-08-31T06:37:04.057Z,102028.84
2018-08-31T06:39:32.322Z,102033.64
2018-08-31T06:42:00.593Z,102022.03
2018-08-31T06:44:29.895Z,102025.36
2018-08-31T06:46:58.191Z,102027.31
2018-08-31T06:49:27.605Z,102024.27
2018-08-31T06:51:55.877Z,102018.84
2018-08-31T06:54:24.427Z,102025.23
2018-08-31T06:56:52.753Z,102021.77
2018-08-31T06:59:21.022Z,102017.14
2018-08-31T07:01:49.386Z,102021.92
2018-08-31T07:04:17.817Z,102023.16
2018-08-31T07:06:47.181Z,102021.79
2018-08-31T07:09:15.437Z,102021.75
2018-08-31T07:11:43.738Z,102024.73
2018-08-31T07:14:12.025Z,102027.77
2018-08-31T07:16:40.397Z,102029.82
2018-08-31T07:19:08.644Z,102028.83
2018-08-31T07:21:36.929Z,102030.84
2018-08-31T07:24:05.221Z,102030.63
2018-08-31T07:26:33.619Z,102031.52
2018-08-31T07:29:01.789Z,102036.89
2018-08-31T07:31:30.122Z,102032.92
2018-08-31T07:33:58.401Z,102034.17
2018-08-31T07:36:26.699Z,102038.02
2018-08-31T07:38:55.057Z,102032.52
2018-08-31T07:41:23.344Z,102042.05
2018-08-31T07:43:51.812Z,102039.11
2018-08-31T07:46:20.164Z,102039.78
2018-08-31T07:48:48.586Z,102032.98
2018-08-31T07:51:16.859Z,102039.61
2018-08-31T07:53:45.182Z,102035.86
2018-08-31T07:56:14.536Z,102035.72
2018-08-31T07:58:42.876Z,102033.36
2018-08-31T08:01:12.158Z,102036.27
2018-08-31T08:03:40.505Z,102029.99
2018-08-31T08:06:08.765Z,102020.89
2018-08-31T08:08:37.066Z,102027.33
2018-08-31T08:11:05.333Z,102031.61
2018-08-31T08:13:33.690Z,102028.86
2018-08-31T08:16:01.969Z,102028.30
2018-08-31T08:18:30.365Z,102025.12
2018-08-31T08:20:58.641Z,102028.20
2018-08-31T08:23:27.254Z,102028.05
2018-08-31T08:25:55.527Z,102036.30
2018-08-31T08:28:23.883Z,102035.62
2018-08-31T08:30:52.385Z,102036.18
2018-08-31T08:33:20.633Z,102033.13
2018-08-31T08:35:49.155Z,102037.66
2018-08-31T08:38:17.439Z,102039.08
2018-08-31T08:40:45.737Z,102037.45
2018-08-31T08:43:14.011Z,102033.98
2018-08-31T08:45:43.348Z,102033.36
2018-08-31T08:48:12.721Z,102031.54
2018-08-31T08:50:41.064Z,102032.12
2018-08-31T08:53:09.310Z,102031.41
2018-08-31T08:55:42.557Z,102041.30
2018-08-31T08:58:11.870Z,102042.59
2018-08-31T09:00:40.190Z,102038.08
2018-08-31T09:03:08.478Z,102035.27
2018-08-31T09:05:36.850Z,102044.11
2018-08-31T09:08:05.275Z,102048.28
2018-08-31T09:10:33.557Z,102046.34
2018-08-31T09:13:01.815Z,102050.92
2018-08-31T09:15:30.112Z,102052.16
2018-08-31T09:17:58.612Z,102055.62
2018-08-31T09:20:26.998Z,102055.74
2018-08-31T09:22:55.273Z,102057.25
2018-08-31T09:25:23.576Z,102056.64
2018-08-31T09:27:51.865Z,102051.61
2018-08-31T09:30:25.612Z,102051.23
2018-08-31T09:32:53.994Z,102052.64
2018-08-31T09:35:22.501Z,102053.33
2018-08-31T09:37:50.853Z,102051.27
2018-08-31T09:40:19.174Z,102051.04
2018-08-31T09:42:47.449Z,102054.84
2018-08-31T09:45:16.810Z,102060.77
2018-08-31T09:47:46.214Z,102059.17
2018-08-31T09:50:15.477Z,102057.31
2018-08-31T09:52:43.793Z,102051.68
2018-08-31T09:55:12.109Z,102047.78
2018-08-31T09:57:41.605Z,102046.58
2018-08-31T10:00:09.885Z,102040.31
2018-08-31T10:02:39.824Z,102051.47
2018-08-31T10:05:08.778Z,102045.28
2018-08-31T10:07:37.069Z,102041.67
2018-08-31T10:10:05.356Z,102049.14
2018-08-31T10:12:33.673Z,102042.34
2018-08-31T10:15:01.954Z,102048.61
2018-08-31T10:17:30.258Z,102047.94
2018-08-31T10:19:58.579Z,102046.45
2018-08-31T10:22:29.007Z,102050.13
2018-08-31T10:24:58.303Z,102045.52
2018-08-31T10:27:26.601Z,102045.16
2018-08-31T10:29:55.657Z,102042.09
2018-08-31T10:32:23.977Z,102042.45
2018-08-31T10:34:52.314Z,102041.45
2018-08-31T10:37:20.590Z,102036.58
2018-08-31T10:39:49.940Z,102041.63
2018-08-31T10:42:18.225Z,102034.50
2018-08-31T10:44:46.499Z,102044.02
2018-08-31T10:47:14.853Z,102039.98
2018-08-31T10:49:43.134Z,102037.98
2018-08-31T10:52:11.453Z,102041.68
2018-08-31T10:54:39.769Z,102033.94
2018-08-31T10:57:09.086Z,102038.22
2018-08-31T10:59:37.394Z,102038.64
2018-08-31T11:02:05.709Z,102033.84
2018-08-31T11:04:34.275Z,102040.67
2018-08-31T11:07:03.623Z,102046.68
2018-08-31T11:09:33.008Z,102041.67
2018-08-31T11:12:01.262Z,102040.33
2018-08-31T11:14:29.533Z,102042.77
2018-08-31T11:16:57.785Z,102040.48
2018-08-31T11:19:26.071Z,102043.49
2018-08-31T11:21:54.325Z,102039.20
2018-08-31T11:24:22.613Z,102031.22
2018-08-31T11:26:52.076Z,102026.98
2018-08-31T11:29:20.445Z,102024.36
2018-08-31T11:31:48.777Z,102026.61
2018-08-31T11:34:17.064Z,102031.36
2018-08-31T11:36:45.360Z,102043.65
2018-08-31T11:39:13.637Z,102046.81
2018-08-31T11:41:41.938Z,102043.64
2018-08-31T11:44:10.645Z,102038.65
2018-08-31T11:46:38.922Z,102041.58
2018-08-31T11:49:07.195Z,102039.58
2018-08-31T11:51:35.471Z,102043.07
2018-08-31T11:54:03.745Z,102044.69
2018-08-31T11:56:32.112Z,102035.53
2018-08-31T11:59:00.374Z,102029.70
2018-08-31T12:01:28.768Z,102028.42
2018-08-31T12:03:56.997Z,102026.99
2018-08-31T12:06:25.277Z,102021.59
2018-08-31T12:08:53.545Z,102013.72
2018-08-31T12:11:21.797Z,102026.90
2018-08-31T12:13:51.105Z,102029.11
2018-08-31T12:16:19.363Z,102019.47
2018-08-31T12:18:47.629Z,102022.84
2018-08-31T12:21:15.877Z,102020.21
2018-08-31T12:23:44.149Z,102025.66
2018-08-31T12:26:12.437Z,102028.22
2018-08-31T12:28:40.723Z,102033.47
2018-08-31T12:31:09.021Z,102033.73
2018-08-31T12:33:37.316Z,102028.28
2018-08-31T12:36:05.601Z,102022.91
2018-08-31T12:38:35.882Z,102021.63
2018-08-31T12:41:04.135Z,102024.59
2018-08-31T12:43:32.422Z,102018.58
2018-08-31T12:46:00.672Z,102020.15
2018-08-31T12:48:28.948Z,102024.81
2018-08-31T12:50:57.213Z,102028.23
2018-08-31T12:53:25.497Z,102027.56
2018-08-31T12:55:55.905Z,102022.89
2018-08-31T12:58:25.260Z,102018.33
2018-08-31T13:00:54.566Z,102026.71
2018-08-31T13:03:22.828Z,102022.89
2018-08-31T13:05:51.217Z,102016.36
2018-08-31T13:08:20.504Z,102007.10
2018-08-31T13:10:48.785Z,102009.40
2018-08-31T13:13:17.059Z,102019.58
2018-08-31T13:15:45.341Z,102024.89
2018-08-31T13:18:13.589Z,102023.50
2018-08-31T13:20:41.906Z,102020.72
2018-08-31T13:23:10.179Z,102028.72
2018-08-31T13:25:38.456Z,102027.06
2018-08-31T13:28:06.746Z,102028.69
2018-08-31T13:30:35.059Z,102032.37
2018-08-31T13:33:03.480Z,102032.69
2018-08-31T13:35:31.756Z,102030.20
2018-08-31T13:38:00.033Z,102027.52
2018-08-31T13:40:29.344Z,102032.01
2018-08-31T13:42:57.594Z,102030.53
2018-08-31T13:45:26.923Z,102024.05
2018-08-31T13:47:56.186Z,102026.69
2018-08-31T13:50:24.472Z,102026.77
2018-08-31T13:52:52.785Z,102023.08
2018-08-31T13:55:21.053Z,102029.31
2018-08-31T13:57:49.537Z,102014.08
2018-08-31T14:00:17.793Z,102027.20
2018-08-31T14:02:46.069Z,102023.59
2018-08-31T14:05:14.316Z,102027.23
2018-08-31T14:07:42.607Z,102022.30
2018-08-31T14:10:10.984Z,102021.89
2018-08-31T14:12:39.317Z,102029.52
2018-08-31T14:15:07.772Z,102032.33
2018-08-31T14:17:36.089Z,102019.25
2018-08-31T14:20:04.497Z,102018.60
2018-08-31T14:22:32.780Z,102021.42
2018-08-31T14:25:01.028Z,102019.34
2018-08-31T14:27:29.361Z,102018.94
2018-08-31T14:29:57.831Z,102017.70
2018-08-31T14:32:25.934Z,102024.50
2018-08-31T14:34:54.187Z,102028.88
2018-08-31T14:37:26.416Z,102027.16
2018-08-31T14:39:55.728Z,102019.42
2018-08-31T14:42:25.161Z,102020.07
2018-08-31T14:44:53.477Z,102023.89
2018-08-31T14:47:21.894Z,102027.34
2018-08-31T14:49:50.173Z,102021.84
2018-08-31T14:52:18.409Z,102030.70
2018-08-31T14:54:46.680Z,102022.18
2018-08-31T14:57:16.021Z,102022.31
2018-08-31T14:59:44.324Z,102019.22
2018-08-31T15:02:14.614Z,102021.77
2018-08-31T15:04:43.001Z,102020.02
2018-08-31T15:07:11.250Z,102024.39
2018-08-31T15:09:39.521Z,102022.96
2018-08-31T15:12:07.772Z,102015.11
2018-08-31T15:14:37.139Z,102015.28
2018-08-31T15:17:05.617Z,102017.22
2018-08-31T15:19:33.936Z,102017.76
2018-08-31T15:22:02.210Z,102009.53
2018-08-31T15:24:30.577Z,102015.38
2018-08-31T15:26:59.833Z,102020.74
2018-08-31T15:29:28.223Z,102022.44
2018-08-31T15:31:56.613Z,102029.27
2018-08-31T15:34:24.897Z,102028.86
2018-08-31T15:36:53.241Z,102036.65
2018-08-31T15:39:21.517Z,102029.36
2018-08-31T15:41:49.792Z,102038.48
2018-08-31T15:44:18.106Z,102035.80
2018-08-31T15:46:46.397Z,102027.73
2018-08-31T15:49:14.702Z,102041.58
2018-08-31T15:51:44.045Z,102039.46
2018-08-31T15:54:12.289Z,102045.16
2018-08-31T15:56:40.613Z,102052.70
2018-08-31T15:59:08.882Z,102060.33
2018-08-31T16:01:37.207Z,102059.55
2018-08-31T16:04:05.502Z,102063.30
2018-08-31T16:06:33.797Z,102060.84
2018-08-31T16:09:03.138Z,102061.42
2018-08-31T16:11:31.474Z,102065.25
2018-08-31T16:13:59.840Z,102066.61
2018-08-31T16:16:28.145Z,102061.73
2018-08-31T16:18:56.427Z,102060.95
2018-08-31T16:21:24.725Z,102058.70
2018-08-31T16:23:53.144Z,102064.34
2018-08-31T16:26:25.945Z,102058.29
2018-08-31T16:28:54.410Z,102058.34
2018-08-31T16:31:22.729Z,102058.45
2018-08-31T16:33:51.010Z,102059.59
2018-08-31T16:36:19.339Z,102069.28
2018-08-31T16:38:47.735Z,102064.30
2018-08-31T16:41:16.000Z,102056.81
2018-08-31T16:43:45.349Z,102058.36
2018-08-31T16:46:13.612Z,102049.77
2018-08-31T16:48:41.944Z,102058.46
2018-08-31T16:51:10.198Z,102065.03
2018-08-31T16:53:40.852Z,102072.20
2018-08-31T16:56:09.119Z,102073.38
2018-08-31T16:58:38.418Z,102072.03
2018-08-31T17:01:07.002Z,102075.98
2018-08-31T17:03:35.409Z,102076.48
2018-08-31T17:06:04.736Z,102067.30
2018-08-31T17:08:33.144Z,102073.33
2018-08-31T17:11:02.497Z,102074.05
2018-08-31T17:13:30.828Z,102077.92
2018-08-31T17:16:00.241Z,102067.20
2018-08-31T17:18:28.630Z,102075.13
2018-08-31T17:20:56.913Z,102083.83
2018-08-31T17:23:25.263Z,102085.24
2018-08-31T17:25:53.542Z,102083.86
2018-08-31T17:28:28.125Z,102092.79
2018-08-31T17:31:01.790Z,102093.56
2018-08-31T17:33:36.206Z,102098.55
2018-08-31T17:36:13.901Z,102100.75
2018-08-31T17:38:42.221Z,102104.59
2018-08-31T17:41:11.664Z,102103.55
2018-08-31T17:43:40.200Z,102118.36
2018-08-31T17:46:10.585Z,102118.16
2018-08-31T17:48:39.203Z,102119.62
2018-08-31T17:51:07.148Z,102117.83
2018-08-31T17:53:35.526Z,102120.75
2018-08-31T17:56:03.881Z,102126.48
2018-08-31T17:58:32.285Z,102127.95
2018-08-31T18:01:00.629Z,102136.73
2018-08-31T18:03:28.989Z,102135.16
2018-08-31T18:05:57.309Z,102142.23
2018-08-31T18:08:25.825Z,102146.83
2018-08-31T18:10:54.128Z,102144.78
2018-08-31T18:13:22.546Z,102156.53
2018-08-31T18:15:50.936Z,102148.95
2018-08-31T18:18:19.259Z,102156.58
2018-08-31T18:20:47.653Z,102161.05
2018-08-31T18:23:16.162Z,102161.84
2018-08-31T18:25:45.639Z,102166.12
2018-08-31T18:28:13.921Z,102163.08
2018-08-31T18:30:42.249Z,102173.63
2018-08-31T18:33:10.639Z,102177.95
2018-08-31T18:35:39.980Z,102180.39
2018-08-31T18:38:08.185Z,102183.01
2018-08-31T18:40:36.561Z,102184.28
2018-08-31T18:43:06.801Z,102186.44
2018-08-31T18:45:35.057Z,102188.80
2018-08-31T18:48:03.353Z,102193.27
2018-08-31T18:50:31.633Z,102197.09
2018-08-31T18:52:59.931Z,102196.74
2018-08-31T18:55:28.243Z,102197.98
2018-08-31T18:57:56.619Z,102199.30
2018-08-31T19:00:24.817Z,102198.70
2018-08-31T19:02:53.087Z,102200.66
2018-08-31T19:05:21.345Z,102206.98
2018-08-31T19:07:49.669Z,102205.90
2018-08-31T19:10:17.939Z,102205.02
2018-08-31T19:12:46.276Z,102208.09
2018-08-31T19:15:14.513Z,102200.34
2018-08-31T19:17:42.842Z,102202.45
2018-08-31T19:20:11.157Z,102203.27
2018-08-31T19:22:39.464Z,102200.39
2018-08-31T19:25:07.787Z,102204.86
2018-08-31T19:27:36.069Z,102204.67
2018-08-31T19:30:04.469Z,102196.04
2018-08-31T19:32:32.871Z,102207.09
2018-08-31T19:35:01.181Z,102201.80
2018-08-31T19:37:29.453Z,102205.20
2018-08-31T19:39:58.765Z,102199.74
2018-08-31T19:42:27.017Z,102200.44
2018-08-31T19:44:55.305Z,102193.58
2018-08-31T19:47:23.581Z,102196.42
2018-08-31T19:49:52.037Z,102196.98
2018-08-31T19:52:20.321Z,102199.56
2018-08-31T19:54:48.645Z,102201.12
2018-08-31T19:57:16.894Z,102197.92
2018-08-31T19:59:45.177Z,102209.92
2018-08-31T20:02:13.498Z,102205.95
2018-08-31T20:04:41.858Z,102212.54
2018-08-31T20:07:10.219Z,102212.33
2018-08-31T20:09:38.505Z,102211.88
2018-08-31T20:12:06.817Z,102213.89
2018-08-31T20:14:35.286Z,102212.70
2018-08-31T20:17:03.729Z,102213.63
2018-08-31T20:19:32.058Z,102214.44
2018-08-31T20:22:01.421Z,102215.92
2018-08-31T20:24:29.761Z,102212.95
2018-08-31T20:26:58.067Z,102213.71
2018-08-31T20:29:26.341Z,102212.89
2018-08-31T20:31:54.677Z,102211.38
2018-08-31T20:34:22.953Z,102217.08
2018-08-31T20:36:51.251Z,102221.66
2018-08-31T20:39:20.627Z,102217.34
2018-08-31T20:41:48.963Z,102218.42
2018-08-31T20:44:17.253Z,102219.58
2018-08-31T20:46:45.527Z,102226.27
2018-08-31T20:49:13.777Z,102226.41
2018-08-31T20:51:43.114Z,102229.53
2018-08-31T20:54:12.423Z,102222.94
2018-08-31T20:56:41.821Z,102226.63
2018-08-31T20:59:11.236Z,102221.83
2018-08-31T21:01:40.637Z,102228.31
2018-08-31T21:04:08.893Z,102223.25
2018-08-31T21:06:38.234Z,102225.80
2018-08-31T21:09:08.680Z,102224.34
2018-08-31T21:11:36.977Z,102230.33
2018-08-31T21:14:05.257Z,102241.52
2018-08-31T21:16:33.757Z,102235.66
2018-08-31T21:19:03.424Z,102232.91
2018-08-31T21:21:31.732Z,102237.13
2018-08-31T21:24:00.038Z,102239.27
2018-08-31T21:26:28.404Z,102239.03
2018-08-31T21:28:56.660Z,102240.97
2018-08-31T21:31:25.063Z,102240.95
2018-08-31T21:33:53.432Z,102243.11
2018-08-31T21:36:21.689Z,102245.53
2018-08-31T21:38:49.972Z,102242.64
2018-08-31T21:41:19.265Z,102249.95
2018-08-31T21:43:47.537Z,102250.34
2018-08-31T21:46:15.826Z,102247.17
2018-08-31T21:48:45.309Z,102250.45
2018-08-31T21:51:13.621Z,102253.92
2018-08-31T21:53:41.901Z,102255.02
2018-08-31T21:56:10.221Z,102252.11
2018-08-31T21:58:38.540Z,102261.36
2018-08-31T22:01:12.013Z,102258.97
2018-08-31T22:03:40.392Z,102260.52
2018-08-31T22:06:08.652Z,102266.14
2018-08-31T22:08:36.969Z,102261.87
2018-08-31T22:11:05.611Z,102260.30
2018-08-31T22:13:34.025Z,102270.61
2018-08-31T22:16:03.417Z,102265.20
2018-08-31T22:18:31.684Z,102271.22
2018-08-31T22:21:00.038Z,102277.47
2018-08-31T22:23:29.359Z,102266.68
2018-08-31T22:25:57.691Z,102278.79
2018-08-31T22:28:25.945Z,102282.98
2018-08-31T22:30:54.261Z,102290.06
2018-08-31T22:33:22.557Z,102283.10
2018-08-31T22:35:51.886Z,102283.23
2018-08-31T22:38:20.137Z,102288.13
2018-08-31T22:40:48.406Z,102288.03
2018-08-31T22:43:16.663Z,102288.52
2018-08-31T22:45:44.955Z,102287.77
2018-08-31T22:48:13.216Z,102293.05
2018-08-31T22:50:42.509Z,102294.23
2018-08-31T22:53:10.760Z,102284.06
2018-08-31T22:55:39.042Z,102289.22
2018-08-31T22:58:07.297Z,102286.45
2018-08-31T23:00:35.593Z,102287.06
2018-08-31T23:03:03.902Z,102287.42
2018-08-31T23:05:32.170Z,102289.80
2018-08-31T23:08:02.808Z,102282.27
2018-08-31T23:10:31.744Z,102284.33
2018-08-31T23:13:00.265Z,102288.73
2018-08-31T23:15:29.718Z,102288.03
2018-08-31T23:17:58.000Z,102289.30
2018-08-31T23:20:27.337Z,102302.52
2018-08-31T23:23:01.040Z,102303.83
2018-08-31T23:25:35.843Z,102303.44
2018-08-31T23:28:04.145Z,102305.99
2018-08-31T23:30:32.557Z,102301.72
2018-08-31T23:33:00.894Z,102307.93
2018-08-31T23:35:29.237Z,102303.98
2018-08-31T23:37:57.518Z,102311.42
2018-08-31T23:40:26.974Z,102306.62
2018-08-31T23:42:55.289Z,102312.28
2018-08-31T23:45:23.531Z,102313.38
2018-08-31T23:47:51.823Z,102314.92
2018-08-31T23:50:20.113Z,102311.57
2018-08-31T23:52:48.437Z,102313.50
2018-08-31T23:55:16.693Z,102308.57
2018-08-31T23:57:45.073Z,102314.20
